Time;durP1;ratioP1;P1;durP2;ratioP2;P2;SDS_P1;SDS_P2;PMS_P1;PMS_P2;Temp;Humidity;BMP_temperature;BMP_pressure;BME280_temperature;BME280_humidity;BME280_pressure;Samples;Min_cycle;Max_cycle;Signal;HPM_P1;HPM_P2
2022/10/17 00:01:49;;;;;;;0.20;0.20;;;14.60;99.90;;;;;;4991910;28;20026;-77
2022/10/17 00:04:14;;;;;;;0.20;0.20;;;14.40;99.90;;;;;;4975748;28;20080;-76
2022/10/17 00:06:40;;;;;;;0.15;0.15;;;14.30;99.90;;;;;;4975540;28;20026;-77
2022/10/17 00:09:08;;;;;;;0.15;0.15;;;14.50;99.90;;;;;;4975587;28;20030;-77
2022/10/17 00:11:34;;;;;;;0.10;0.10;;;14.50;99.90;;;;;;4992933;28;20029;-77
2022/10/17 00:14:01;;;;;;;0.10;0.10;;;14.50;99.90;;;;;;4992747;28;20030;-77
2022/10/17 00:16:30;;;;;;;0.10;0.10;;;14.60;99.90;;;;;;4975462;28;20109;-77
2022/10/17 00:18:56;;;;;;;0.17;0.17;;;14.60;99.90;;;;;;4975487;28;20022;-80
2022/10/17 00:21:23;;;;;;;0.10;0.10;;;14.60;99.90;;;;;;4975206;28;20033;-77
2022/10/17 00:23:49;;;;;;;0.10;0.10;;;14.60;99.90;;;;;;4992734;28;20033;-77
2022/10/17 00:26:15;;;;;;;0.13;0.13;;;14.50;99.90;;;;;;4992765;28;20034;-77
2022/10/17 00:28:41;;;;;;;0.10;0.10;;;14.50;99.90;;;;;;4975457;28;20026;-77
2022/10/17 00:31:07;;;;;;;0.17;0.17;;;14.60;99.90;;;;;;4992830;28;20030;-77
2022/10/17 00:33:34;;;;;;;0.10;0.10;;;14.70;99.90;;;;;;4975222;28;20030;-77
2022/10/17 00:36:15;;;;;;;0.10;0.10;;;14.70;99.90;;;;;;4975099;28;20250;-77
2022/10/17 00:38:42;;;;;;;0.10;0.10;;;14.80;99.90;;;;;;4992730;28;20018;-77
2022/10/17 00:41:10;;;;;;;0.20;0.20;;;14.70;99.90;;;;;;4975143;28;20046;-79
2022/10/17 00:43:59;;;;;;;0.20;0.20;;;14.80;99.90;;;;;;4992641;28;20504;-80
2022/10/17 00:46:45;;;;;;;0.20;0.20;;;14.90;99.90;;;;;;4991118;28;20375;-76
2022/10/17 00:49:11;;;;;;;0.13;0.13;;;15.00;99.90;;;;;;4974732;28;20062;-77
2022/10/17 00:51:44;;;;;;;0.20;0.20;;;15.00;99.90;;;;;;4992611;28;20114;-77
2022/10/17 00:54:11;;;;;;;0.20;0.20;;;14.90;99.90;;;;;;4974955;28;20117;-77
2022/10/17 00:56:39;;;;;;;0.20;0.20;;;14.60;99.90;;;;;;4975088;28;20073;-76
2022/10/17 00:59:07;;;;;;;0.20;0.20;;;14.50;99.90;;;;;;4975018;28;20022;-78
2022/10/17 01:01:33;;;;;;;0.10;0.10;;;14.40;99.90;;;;;;4992448;28;20019;-79
2022/10/17 01:04:00;;;;;;;0.20;0.20;;;14.40;99.90;;;;;;4992348;28;20090;-78
2022/10/17 01:06:25;;;;;;;0.10;0.10;;;14.20;99.90;;;;;;4992357;28;20053;-77
2022/10/17 01:08:51;;;;;;;0.20;0.20;;;14.00;99.90;;;;;;4991541;28;20495;-77
2022/10/17 01:11:31;;;;;;;0.10;0.10;;;14.00;99.90;;;;;;4975023;28;20034;-77
2022/10/17 01:14:16;;;;;;;0.10;0.10;;;13.80;99.90;;;;;;4974930;28;20228;-79
2022/10/17 01:16:50;;;;;;;0.20;0.20;;;13.70;99.90;;;;;;4991318;28;20014;-77
2022/10/17 01:19:51;;;;;;;0.15;0.15;;;13.70;99.90;;;;;;4991144;28;20029;-76
2022/10/17 01:22:28;;;;;;;0.20;0.20;;;13.80;99.90;;;;;;4992446;28;20422;-76
2022/10/17 01:25:28;;;;;;;0.10;0.10;;;14.00;99.90;;;;;;4990888;28;20490;-80
2022/10/17 01:27:58;;;;;;;0.10;0.10;;;13.90;99.90;;;;;;4992324;28;20042;-77
2022/10/17 01:31:12;;;;;;;0.20;0.20;;;14.00;99.90;;;;;;4992200;28;20034;-77
2022/10/17 01:34:02;;;;;;;0.20;0.20;;;14.20;99.90;;;;;;4915372;29;20024;-77
2022/10/17 01:36:36;;;;;;;0.10;0.10;;;14.30;99.90;;;;;;4916674;29;20103;-76
2022/10/17 01:39:14;;;;;;;0.10;0.10;;;14.10;99.90;;;;;;4964088;28;20486;-77
2022/10/17 01:41:50;;;;;;;0.15;0.15;;;14.00;99.90;;;;;;4962241;28;20022;-78
2022/10/17 01:44:35;;;;;;;0.20;0.20;;;14.00;99.90;;;;;;4978090;28;20479;-77
2022/10/17 01:47:07;;;;;;;0.10;0.10;;;13.80;99.90;;;;;;4995681;28;20026;-76
2022/10/17 01:49:37;;;;;;;0.17;0.17;;;13.80;99.90;;;;;;4995766;28;20026;-77
2022/10/17 01:52:12;;;;;;;0.20;0.20;;;13.80;99.90;;;;;;4977941;28;20080;-77
2022/10/17 01:54:50;;;;;;;0.10;0.10;;;13.90;99.90;;;;;;4995281;28;20085;-79
2022/10/17 01:57:40;;;;;;;0.10;0.10;;;13.90;99.90;;;;;;4995440;28;20042;-79
2022/10/17 02:00:12;;;;;;;0.10;0.10;;;14.00;99.90;;;;;;4994183;28;20043;-79
2022/10/17 02:02:39;;;;;;;0.20;0.20;;;13.90;99.90;;;;;;4995463;28;20546;-78
2022/10/17 02:05:07;;;;;;;0.20;0.20;;;13.80;99.90;;;;;;4995087;28;20069;-77
2022/10/17 02:07:32;;;;;;;1.00;1.00;;;13.70;99.90;;;;;;4994133;28;20030;-77
2022/10/17 02:09:58;;;;;;;0.10;0.10;;;13.50;99.90;;;;;;4995172;28;20093;-78
2022/10/17 02:12:36;;;;;;;0.10;0.10;;;13.20;99.90;;;;;;4995184;28;20050;-78
2022/10/17 02:15:07;;;;;;;0.17;0.17;;;13.00;99.90;;;;;;4994963;28;20022;-77
2022/10/17 02:17:50;;;;;;;0.20;0.20;;;13.10;99.90;;;;;;4995029;28;20030;-77
2022/10/17 02:20:36;;;;;;;0.20;0.20;;;13.00;99.90;;;;;;4993866;28;20390;-76
2022/10/17 02:23:33;;;;;;;0.10;0.10;;;13.00;99.90;;;;;;4995035;28;20054;-76
2022/10/17 02:26:13;;;;;;;0.20;0.20;;;13.00;99.90;;;;;;4994725;28;20372;-77
2022/10/17 02:29:01;;;;;;;0.20;0.20;;;13.00;99.90;;;;;;4995022;28;20057;-77
2022/10/17 02:31:40;;;;;;;0.10;0.10;;;13.30;99.90;;;;;;4994926;28;20089;-77
2022/10/17 02:34:12;;;;;;;0.20;0.20;;;13.50;99.90;;;;;;4993595;28;20029;-75
2022/10/17 02:36:44;;;;;;;0.20;0.20;;;13.70;99.90;;;;;;4994581;28;20022;-77
2022/10/17 02:39:11;;;;;;;3.30;3.10;;;13.90;99.90;;;;;;4994772;28;20385;-76
2022/10/17 02:41:39;;;;;;;0.20;0.20;;;13.90;99.90;;;;;;4994755;28;20100;-78
2022/10/17 02:44:06;;;;;;;0.10;0.10;;;14.10;99.90;;;;;;4994431;28;20023;-78
2022/10/17 02:46:34;;;;;;;0.20;0.20;;;14.10;99.90;;;;;;4994398;28;20038;-77
2022/10/17 02:49:02;;;;;;;0.20;0.20;;;14.10;99.90;;;;;;4994650;28;20034;-77
2022/10/17 02:51:54;;;;;;;0.13;0.13;;;14.00;99.90;;;;;;4994431;28;20048;-77
2022/10/17 02:54:29;;;;;;;0.20;0.20;;;13.80;99.90;;;;;;4994247;28;20031;-77
2022/10/17 02:57:01;;;;;;;0.20;0.20;;;13.60;99.90;;;;;;4994380;28;20105;-77
2022/10/17 02:59:31;;;;;;;0.20;0.20;;;13.50;99.90;;;;;;4994365;28;20038;-79
2022/10/17 03:01:56;;;;;;;0.20;0.20;;;13.40;99.90;;;;;;4994429;28;20478;-77
2022/10/17 03:04:22;;;;;;;0.20;0.20;;;13.40;99.90;;;;;;4994202;28;20080;-76
2022/10/17 03:06:48;;;;;;;0.20;0.20;;;13.30;99.90;;;;;;4994110;28;20394;-77
2022/10/17 03:09:14;;;;;;;0.20;0.20;;;13.30;99.90;;;;;;4994003;28;20026;-77
2022/10/17 03:11:41;;;;;;;0.20;0.20;;;13.30;99.90;;;;;;4994138;28;20038;-76
2022/10/17 03:14:07;;;;;;;0.20;0.20;;;13.20;99.90;;;;;;4992625;28;20026;-76
2022/10/17 03:16:32;;;;;;;0.10;0.10;;;13.20;99.90;;;;;;4992752;28;20540;-75
2022/10/17 03:18:58;;;;;;;0.30;0.30;;;13.20;99.90;;;;;;4976647;28;20494;-77
2022/10/17 03:21:24;;;;;;;0.20;0.20;;;13.30;99.90;;;;;;4976434;28;20390;-77
2022/10/17 03:23:49;;;;;;;0.20;0.20;;;13.30;99.90;;;;;;4993730;28;20445;-78
2022/10/17 03:26:15;;;;;;;0.20;0.20;;;13.30;99.90;;;;;;4993723;28;20031;-80
2022/10/17 03:28:41;;;;;;;0.20;0.20;;;13.10;99.90;;;;;;4993915;28;20050;-77
2022/10/17 03:31:14;;;;;;;0.10;0.10;;;13.20;99.90;;;;;;4992573;28;20030;-76
2022/10/17 03:33:40;;;;;;;0.20;0.20;;;13.00;99.90;;;;;;4976353;28;20038;-77
2022/10/17 03:36:12;;;;;;;0.10;0.10;;;13.00;99.90;;;;;;4993496;28;20077;-79
2022/10/17 03:38:38;;;;;;;0.20;0.20;;;13.10;99.90;;;;;;4960115;28;20054;-79
2022/10/17 03:41:05;;;;;;;0.20;0.20;;;13.30;99.90;;;;;;4976187;28;20364;-77
2022/10/17 03:43:31;;;;;;;0.50;0.50;;;13.40;99.90;;;;;;4976145;28;20033;-77
2022/10/17 03:46:00;;;;;;;0.13;0.13;;;13.50;99.90;;;;;;4993189;28;20549;-77
2022/10/17 03:48:28;;;;;;;0.10;0.10;;;13.40;99.90;;;;;;4993298;28;20106;-79
2022/10/17 03:50:59;;;;;;;0.10;0.10;;;13.50;99.90;;;;;;4975973;28;20564;-80
2022/10/17 03:53:25;;;;;;;0.20;0.20;;;13.50;99.90;;;;;;4975972;28;20029;-77
2022/10/17 03:55:51;;;;;;;0.10;0.10;;;13.50;99.90;;;;;;4975145;28;20278;-77
2022/10/17 03:58:16;;;;;;;0.10;0.10;;;13.50;99.90;;;;;;4993298;28;20054;-77
2022/10/17 04:00:42;;;;;;;0.10;0.10;;;13.50;99.90;;;;;;4993210;28;20058;-80
2022/10/17 04:03:08;;;;;;;0.10;0.10;;;13.50;99.90;;;;;;4993072;28;20027;-76
2022/10/17 04:05:33;;;;;;;0.17;0.17;;;13.30;99.90;;;;;;4991774;28;20093;-77
2022/10/17 04:07:59;;;;;;;0.20;0.20;;;13.20;99.90;;;;;;4993147;28;20018;-76
2022/10/17 04:10:25;;;;;;;0.52;0.52;;;13.30;99.90;;;;;;4992921;28;20030;-77
2022/10/17 04:12:51;;;;;;;0.10;0.10;;;13.20;99.90;;;;;;4975720;28;20023;-77
2022/10/17 04:15:16;;;;;;;0.17;0.17;;;13.10;99.90;;;;;;4991535;28;20031;-79
2022/10/17 04:17:42;;;;;;;0.20;0.20;;;13.10;99.90;;;;;;4975519;28;20092;-77
2022/10/17 04:20:08;;;;;;;0.43;0.43;;;13.00;99.90;;;;;;4992928;28;20553;-76
2022/10/17 04:22:34;;;;;;;0.20;0.20;;;13.00;99.90;;;;;;4992974;28;20019;-76
2022/10/17 04:25:00;;;;;;;0.55;0.55;;;12.90;99.90;;;;;;4975263;28;20052;-76
2022/10/17 04:27:26;;;;;;;0.20;0.20;;;12.90;99.90;;;;;;4991557;28;20023;-76
2022/10/17 04:29:51;;;;;;;0.25;0.25;;;13.10;99.90;;;;;;4993415;28;20033;-77
2022/10/17 04:32:17;;;;;;;0.30;0.30;;;13.10;99.90;;;;;;4992626;28;20367;-77
2022/10/17 04:34:43;;;;;;;0.20;0.20;;;13.10;99.90;;;;;;4992631;28;20037;-78
2022/10/17 04:37:08;;;;;;;0.32;0.32;;;13.00;99.90;;;;;;4959133;28;20033;-77
2022/10/17 04:39:34;;;;;;;1.30;0.75;;;13.10;99.90;;;;;;4992680;28;20027;-77
2022/10/17 04:42:00;;;;;;;0.40;0.40;;;13.20;99.90;;;;;;4991350;28;20073;-76
2022/10/17 04:44:29;;;;;;;0.55;0.55;;;13.20;99.90;;;;;;4974966;28;20058;-77
2022/10/17 04:46:55;;;;;;;0.40;0.40;;;13.30;99.90;;;;;;4975193;28;20031;-79
2022/10/17 04:49:20;;;;;;;0.10;0.10;;;13.30;99.90;;;;;;4991304;28;20084;-77
2022/10/17 04:51:46;;;;;;;0.20;0.20;;;13.20;99.90;;;;;;4974857;28;20448;-76
2022/10/17 04:54:12;;;;;;;0.30;0.30;;;13.20;99.90;;;;;;4958826;28;20076;-77
2022/10/17 04:56:38;;;;;;;0.10;0.10;;;13.30;99.90;;;;;;4991075;28;20026;-77
2022/10/17 04:59:03;;;;;;;0.20;0.20;;;13.30;99.90;;;;;;4992472;28;20030;-77
2022/10/17 05:01:29;;;;;;;0.82;0.82;;;13.30;99.90;;;;;;4974836;28;20027;-80
2022/10/17 05:03:55;;;;;;;0.20;0.20;;;13.40;99.90;;;;;;4992333;28;20418;-76
2022/10/17 05:06:24;;;;;;;0.10;0.10;;;13.50;99.90;;;;;;4992265;28;20080;-77
2022/10/17 05:08:49;;;;;;;0.20;0.20;;;13.50;99.90;;;;;;4995284;28;20113;-79
2022/10/17 05:11:26;;;;;;;0.15;0.15;;;13.60;99.90;;;;;;4996329;28;20462;-77
2022/10/17 05:13:58;;;;;;;0.25;0.25;;;13.70;99.90;;;;;;4996204;28;20382;-77
2022/10/17 05:16:24;;;;;;;0.40;0.40;;;13.60;99.90;;;;;;4996148;28;20534;-79
2022/10/17 05:18:52;;;;;;;0.17;0.17;;;13.60;99.90;;;;;;4978861;28;20509;-77
2022/10/17 05:21:18;;;;;;;0.10;0.10;;;13.50;99.90;;;;;;4996167;28;20056;-78
2022/10/17 05:23:45;;;;;;;0.20;0.20;;;13.40;99.90;;;;;;4978657;28;20126;-77
2022/10/17 05:26:11;;;;;;;2.35;2.25;;;13.50;99.90;;;;;;4978746;28;20494;-77
2022/10/17 05:28:37;;;;;;;0.20;0.20;;;13.40;99.90;;;;;;4978462;28;20058;-77
2022/10/17 05:31:07;;;;;;;0.20;0.20;;;13.50;99.90;;;;;;4962311;28;20030;-76
2022/10/17 05:33:35;;;;;;;0.10;0.10;;;13.50;99.90;;;;;;4978238;28;20026;-77
2022/10/17 05:36:01;;;;;;;0.10;0.10;;;13.70;99.90;;;;;;4978150;28;20018;-77
2022/10/17 05:38:27;;;;;;;0.30;0.30;;;13.70;99.90;;;;;;4995612;28;20023;-77
2022/10/17 05:41:01;;;;;;;0.20;0.20;;;13.80;99.90;;;;;;4978338;28;20105;-77
2022/10/17 05:43:27;;;;;;;0.10;0.10;;;13.60;99.90;;;;;;4978164;28;20026;-78
2022/10/17 05:45:53;;;;;;;0.17;0.17;;;13.40;99.90;;;;;;4995270;28;20022;-76
2022/10/17 05:48:20;;;;;;;0.20;0.20;;;13.30;99.90;;;;;;4978028;28;20506;-77
2022/10/17 05:50:45;;;;;;;0.75;0.75;;;13.30;99.90;;;;;;4977938;28;20030;-77
2022/10/17 05:53:11;;;;;;;0.10;0.10;;;13.10;99.90;;;;;;4995309;28;20030;-77
2022/10/17 05:55:37;;;;;;;0.20;0.20;;;13.20;99.90;;;;;;4961479;28;20390;-77
2022/10/17 05:58:03;;;;;;;0.20;0.20;;;13.20;99.90;;;;;;4995466;28;20433;-77
2022/10/17 06:00:29;;;;;;;8.60;4.22;;;13.20;99.90;;;;;;4995249;28;20030;-77
2022/10/17 06:02:55;;;;;;;0.10;0.10;;;13.20;99.90;;;;;;4995327;28;20386;-77
2022/10/17 06:05:21;;;;;;;0.20;0.20;;;13.00;99.90;;;;;;4977548;28;20383;-79
2022/10/17 06:07:49;;;;;;;0.10;0.10;;;13.00;99.90;;;;;;4995195;28;20027;-78
2022/10/17 06:10:16;;;;;;;0.40;0.40;;;12.90;99.90;;;;;;4995229;28;20037;-79
2022/10/17 06:12:45;;;;;;;0.20;0.20;;;12.80;99.90;;;;;;4993786;28;20113;-77
2022/10/17 06:15:11;;;;;;;0.10;0.10;;;13.00;99.90;;;;;;4977396;28;20113;-76
2022/10/17 06:17:37;;;;;;;0.20;0.20;;;12.90;99.90;;;;;;4993797;28;20022;-79
2022/10/17 06:20:03;;;;;;;0.13;0.13;;;12.90;99.90;;;;;;4994421;28;20034;-80
2022/10/17 06:22:29;;;;;;;0.17;0.17;;;12.90;99.90;;;;;;4995091;28;20110;-79
2022/10/17 06:24:55;;;;;;;0.10;0.10;;;13.00;99.90;;;;;;4994739;28;20450;-77
2022/10/17 06:27:21;;;;;;;0.17;0.17;;;13.20;99.90;;;;;;4977548;28;20050;-76
2022/10/17 06:29:47;;;;;;;0.15;0.15;;;13.10;99.90;;;;;;4993508;28;20394;-77
2022/10/17 06:32:13;;;;;;;0.20;0.20;;;13.10;99.90;;;;;;4994779;28;20030;-80
2022/10/17 06:34:39;;;;;;;0.20;0.20;;;13.20;99.90;;;;;;4994575;28;20030;-76
2022/10/17 06:37:05;;;;;;;0.20;0.20;;;13.20;99.90;;;;;;4993282;28;20522;-75
2022/10/17 06:39:32;;;;;;;0.10;0.10;;;13.20;99.90;;;;;;4994564;28;20026;-77
2022/10/17 06:42:02;;;;;;;0.98;0.98;;;13.30;99.90;;;;;;4994463;28;20091;-76
2022/10/17 06:44:30;;;;;;;0.15;0.15;;;13.30;99.90;;;;;;4994228;28;20035;-78
2022/10/17 06:47:00;;;;;;;0.10;0.10;;;13.20;99.90;;;;;;4976886;28;20026;-77
2022/10/17 06:49:26;;;;;;;0.10;0.10;;;13.20;99.90;;;;;;4976835;28;20041;-78
2022/10/17 06:51:53;;;;;;;0.20;0.20;;;13.20;99.90;;;;;;4993067;28;20038;-77
2022/10/17 06:54:18;;;;;;;0.10;0.10;;;13.60;99.90;;;;;;4976683;28;20490;-75
2022/10/17 06:56:44;;;;;;;0.20;0.20;;;13.60;99.90;;;;;;4976719;28;20126;-76
2022/10/17 06:59:10;;;;;;;0.20;0.20;;;13.60;99.90;;;;;;4976776;28;20045;-76
2022/10/17 07:01:36;;;;;;;0.13;0.13;;;13.60;99.90;;;;;;4992914;28;20029;-77
2022/10/17 07:04:02;;;;;;;0.73;0.73;;;13.60;99.90;;;;;;4992834;28;20449;-76
2022/10/17 07:06:28;;;;;;;0.20;0.20;;;13.70;99.90;;;;;;4993750;28;20054;-77
2022/10/17 07:08:57;;;;;;;0.13;0.13;;;13.60;99.90;;;;;;4976739;28;20034;-77
2022/10/17 07:11:24;;;;;;;0.20;0.20;;;13.80;99.90;;;;;;4993912;28;20073;-76
2022/10/17 07:13:50;;;;;;;0.20;0.20;;;13.90;99.90;;;;;;4992681;28;20030;-77
2022/10/17 07:16:16;;;;;;;95.78;21.02;;;14.10;99.90;;;;;;4993891;28;20102;-77
2022/10/17 07:18:42;;;;;;;2.53;1.45;;;14.10;99.90;;;;;;4976584;28;20372;-77
2022/10/17 07:21:09;;;;;;;5.28;3.10;;;14.00;99.90;;;;;;4976621;28;20026;-77
2022/10/17 07:23:38;;;;;;;0.30;0.30;;;14.00;99.90;;;;;;4993816;28;20113;-77
2022/10/17 07:26:11;;;;;;;0.10;0.10;;;14.00;99.90;;;;;;4976224;28;20390;-77
2022/10/17 07:28:39;;;;;;;0.10;0.10;;;14.10;99.90;;;;;;4976413;28;20033;-75
2022/10/17 07:31:07;;;;;;;0.10;0.10;;;14.30;99.90;;;;;;4992733;28;20045;-76
2022/10/17 07:33:33;;;;;;;0.10;0.10;;;14.40;99.90;;;;;;4993857;28;20026;-76
2022/10/17 07:36:00;;;;;;;0.20;0.20;;;14.60;99.90;;;;;;4993456;28;20015;-76
2022/10/17 07:38:30;;;;;;;0.10;0.10;;;14.70;99.90;;;;;;4975772;28;20084;-79
2022/10/17 07:40:58;;;;;;;0.10;0.10;;;14.90;99.90;;;;;;4976065;28;20026;-77
2022/10/17 07:43:24;;;;;;;0.10;0.10;;;15.00;99.90;;;;;;4976248;28;20036;-76
2022/10/17 07:45:51;;;;;;;0.10;0.10;;;15.10;99.90;;;;;;4974845;28;20022;-76
2022/10/17 07:48:18;;;;;;;0.10;0.10;;;15.10;99.90;;;;;;4993121;28;20386;-78
2022/10/17 07:50:44;;;;;;;0.20;0.20;;;15.20;99.90;;;;;;4993040;28;20442;-76
2022/10/17 07:53:10;;;;;;;0.10;0.10;;;15.30;99.90;;;;;;4991762;28;20026;-76
2022/10/17 07:55:36;;;;;;;0.17;0.17;;;15.40;99.90;;;;;;4965386;28;20018;-76
2022/10/17 07:58:03;;;;;;;0.20;0.20;;;15.50;99.90;;;;;;4993336;28;20033;-76
2022/10/17 08:00:29;;;;;;;0.40;0.40;;;15.60;99.90;;;;;;4975733;28;20508;-77
2022/10/17 08:02:54;;;;;;;0.50;0.50;;;15.50;99.90;;;;;;4992934;28;20105;-78
2022/10/17 08:05:20;;;;;;;0.35;0.35;;;15.50;99.90;;;;;;4992694;28;20026;-76
2022/10/17 08:07:46;;;;;;;0.43;0.43;;;15.60;99.90;;;;;;4991784;28;20198;-76
2022/10/17 08:10:14;;;;;;;0.20;0.20;;;15.60;99.90;;;;;;4992825;28;20368;-76
2022/10/17 08:12:40;;;;;;;0.90;0.90;;;15.70;99.90;;;;;;4993137;28;20408;-76
2022/10/17 08:15:07;;;;;;;0.25;0.25;;;15.80;99.90;;;;;;4993099;28;20161;-76
2022/10/17 08:17:37;;;;;;;0.10;0.10;;;15.90;99.90;;;;;;4992879;28;20105;-79
2022/10/17 08:20:04;;;;;;;1.17;1.08;;;16.00;99.90;;;;;;4991534;28;20033;-79
2022/10/17 08:22:31;;;;;;;1.60;0.73;;;16.10;99.90;;;;;;4992598;28;20033;-76
2022/10/17 08:24:56;;;;;;;0.10;0.10;;;16.10;99.90;;;;;;4975171;28;20022;-78
2022/10/17 08:27:23;;;;;;;0.35;0.25;;;16.20;99.90;;;;;;4992484;28;20109;-77
2022/10/17 08:29:53;;;;;;;0.10;0.10;;;16.40;99.90;;;;;;4975140;28;20029;-77
2022/10/17 08:32:25;;;;;;;0.10;0.10;;;16.40;99.90;;;;;;4987944;28;20023;-76
2022/10/17 08:34:55;;;;;;;0.30;0.30;;;16.60;99.90;;;;;;4972949;28;20080;-79
2022/10/17 08:37:22;;;;;;;0.10;0.10;;;16.80;99.90;;;;;;4955729;28;20529;-76
2022/10/17 08:39:48;;;;;;;0.10;0.10;;;16.80;99.90;;;;;;4971853;28;20503;-77
2022/10/17 08:42:39;;;;;;;0.10;0.10;;;17.00;99.90;;;;;;4972887;28;20456;-77
2022/10/17 08:45:13;;;;;;;0.10;0.10;;;17.10;99.90;;;;;;4968677;28;20053;-76
2022/10/17 08:47:50;;;;;;;0.73;0.68;;;17.30;99.90;;;;;;4975169;28;20219;-79
2022/10/17 08:50:24;;;;;;;0.30;0.30;;;17.40;99.90;;;;;;4992460;28;20081;-77
2022/10/17 08:52:55;;;;;;;0.10;0.10;;;17.60;99.90;;;;;;4992613;28;20031;-76
2022/10/17 08:55:39;;;;;;;0.10;0.10;;;17.70;99.90;;;;;;4974832;28;20030;-76
2022/10/17 08:58:28;;;;;;;0.22;0.22;;;17.80;99.90;;;;;;4992688;28;20501;-76
2022/10/17 09:01:03;;;;;;;0.10;0.10;;;18.00;99.90;;;;;;4974664;28;20117;-77
2022/10/17 09:04:01;;;;;;;0.50;0.50;;;18.10;99.90;;;;;;4992288;28;20058;-76
2022/10/17 09:06:38;;;;;;;0.10;0.10;;;18.30;99.90;;;;;;4992289;28;20057;-76
2022/10/17 09:09:12;;;;;;;0.10;0.10;;;18.40;99.90;;;;;;4992361;28;20100;-79
2022/10/17 09:12:08;;;;;;;0.10;0.10;;;18.70;99.90;;;;;;4974820;28;20501;-77
2022/10/17 09:14:55;;;;;;;0.10;0.10;;;19.00;99.90;;;;;;4992225;28;20538;-77
2022/10/17 09:17:36;;;;;;;0.00;0.00;;;19.60;99.90;;;;;;4974929;28;20031;-77
2022/10/17 09:20:10;;;;;;;0.10;0.10;;;20.20;99.90;;;;;;4974864;28;20030;-79
2022/10/17 09:22:48;;;;;;;0.00;0.00;;;20.60;98.60;;;;;;4958673;28;20117;-80
2022/10/17 09:25:17;;;;;;;0.10;0.10;;;21.00;95.80;;;;;;4991903;28;20026;-77
2022/10/17 09:28:09;;;;;;;0.00;0.00;;;21.50;93.40;;;;;;4974892;28;20368;-77
2022/10/17 09:30:55;;;;;;;0.10;0.10;;;21.90;90.80;;;;;;4992151;28;20031;-77
2022/10/17 09:33:42;;;;;;;0.10;0.10;;;22.30;87.90;;;;;;4974852;28;20414;-77
2022/10/17 09:36:15;;;;;;;0.00;0.00;;;22.90;84.60;;;;;;4958508;28;20022;-77
2022/10/17 09:38:48;;;;;;;0.00;0.00;;;23.40;81.70;;;;;;4992155;28;20027;-78
2022/10/17 09:41:47;;;;;;;0.05;0.05;;;23.70;79.00;;;;;;4992401;28;20562;-77
2022/10/17 09:44:18;;;;;;;0.00;0.00;;;24.00;74.80;;;;;;4988079;28;20039;-77
2022/10/17 09:47:15;;;;;;;0.00;0.00;;;23.90;73.20;;;;;;4974642;28;20498;-76
2022/10/17 09:49:43;;;;;;;0.47;0.47;;;24.10;73.10;;;;;;4992541;28;20034;-80
2022/10/17 09:52:29;;;;;;;1.38;1.17;;;24.40;70.60;;;;;;4974461;28;20042;-78
2022/10/17 09:55:04;;;;;;;1.15;0.85;;;24.90;68.90;;;;;;4994362;28;20058;-78
2022/10/17 09:57:51;;;;;;;2.17;1.17;;;24.90;68.30;;;;;;4995430;28;20142;-77
2022/10/17 10:00:23;;;;;;;0.00;0.00;;;25.50;68.00;;;;;;4995837;28;20022;-80
2022/10/17 10:02:49;;;;;;;0.00;0.00;;;25.90;64.90;;;;;;4977821;28;20026;-77
2022/10/17 10:05:18;;;;;;;0.20;0.20;;;26.00;63.80;;;;;;4961418;28;20026;-79
2022/10/17 10:08:11;;;;;;;0.00;0.00;;;26.20;61.50;;;;;;4993957;28;20037;-77
2022/10/17 10:10:41;;;;;;;0.10;0.10;;;26.60;61.40;;;;;;4995270;28;20064;-80
2022/10/17 10:13:13;;;;;;;2.22;1.15;;;26.30;59.70;;;;;;4961494;28;20504;-78
2022/10/17 10:15:42;;;;;;;0.28;0.28;;;26.60;59.60;;;;;;4996387;28;20088;-80
2022/10/17 10:18:33;;;;;;;0.88;0.65;;;26.80;60.00;;;;;;4978923;28;20030;-77
2022/10/17 10:21:02;;;;;;;;;;;27.20;58.20;;;;;;4995496;28;20030;-80
2022/10/17 10:23:28;;;;;;;0.63;0.47;;;27.70;57.50;;;;;;4977460;28;20004;-78
2022/10/17 10:25:57;;;;;;;0.00;0.00;;;28.00;57.10;;;;;;4977617;28;20054;-80
2022/10/17 10:28:32;;;;;;;0.00;0.00;;;28.40;55.50;;;;;;4977565;28;20030;-77
2022/10/17 10:31:03;;;;;;;1.20;0.20;;;28.10;54.60;;;;;;4961241;28;20034;-78
2022/10/17 10:33:31;;;;;;;0.30;0.20;;;28.30;52.50;;;;;;4994812;28;20053;-77
2022/10/17 10:36:02;;;;;;;0.00;0.00;;;28.40;51.70;;;;;;4994588;28;20036;-77
2022/10/17 10:38:31;;;;;;;0.45;0.38;;;28.60;52.40;;;;;;4977211;28;20081;-78
2022/10/17 10:41:03;;;;;;;0.15;0.15;;;28.60;51.40;;;;;;4994796;28;20098;-77
2022/10/17 10:43:38;;;;;;;0.00;0.00;;;28.10;51.00;;;;;;4994798;28;20041;-76
2022/10/17 10:46:27;;;;;;;0.00;0.00;;;28.70;52.10;;;;;;4993996;28;20061;-80
2022/10/17 10:48:59;;;;;;;8.48;3.40;;;28.60;50.90;;;;;;4994483;28;20026;-77
2022/10/17 10:51:24;;;;;;;0.00;0.00;;;29.00;49.70;;;;;;4994499;28;20466;-77
2022/10/17 10:54:04;;;;;;;0.65;0.52;;;28.70;50.20;;;;;;4994205;28;20031;-79
2022/10/17 10:56:37;;;;;;;0.10;0.10;;;28.00;51.70;;;;;;4976580;28;20098;-77
2022/10/17 10:59:17;;;;;;;0.13;0.13;;;27.90;52.30;;;;;;4976976;28;20364;-77
2022/10/17 11:01:58;;;;;;;0.10;0.10;;;28.40;51.70;;;;;;4994623;28;20031;-77
2022/10/17 11:04:30;;;;;;;0.00;0.00;;;28.80;52.40;;;;;;4977314;28;20030;-77
2022/10/17 11:07:23;;;;;;;0.30;0.30;;;29.60;52.30;;;;;;4994355;28;20041;-77
2022/10/17 11:10:30;;;;;;;0.13;0.03;;;30.00;51.10;;;;;;4994536;28;20569;-80
2022/10/17 11:13:03;;;;;;;0.00;0.00;;;30.10;50.80;;;;;;4994087;28;20372;-80
2022/10/17 11:16:01;;;;;;;0.10;0.10;;;30.70;48.00;;;;;;4976159;28;20065;-79
2022/10/17 11:18:38;;;;;;;0.10;0.10;;;30.80;46.50;;;;;;4994291;28;20033;-77
2022/10/17 11:21:48;;;;;;;1.20;0.63;;;29.90;47.10;;;;;;4976647;28;20018;-78
2022/10/17 11:24:36;;;;;;;0.00;0.00;;;30.40;47.50;;;;;;4956968;28;20376;-77
2022/10/17 11:27:04;;;;;;;0.10;0.10;;;30.80;44.90;;;;;;4993783;28;20026;-77
2022/10/17 11:29:32;;;;;;;0.10;0.10;;;31.20;44.50;;;;;;4993731;28;20030;-77
2022/10/17 11:32:12;;;;;;;0.00;0.00;;;31.30;44.80;;;;;;4960081;28;20053;-78
2022/10/17 11:34:48;;;;;;;0.00;0.00;;;31.70;44.50;;;;;;4976122;28;20034;-77
2022/10/17 11:37:20;;;;;;;0.00;0.00;;;32.00;43.40;;;;;;4993871;28;20494;-74
2022/10/17 11:39:58;;;;;;;0.45;0.30;;;31.80;44.00;;;;;;4976491;28;20124;-75
2022/10/17 11:42:31;;;;;;;0.38;0.38;;;32.10;45.40;;;;;;4976070;28;20033;-75
2022/10/17 11:45:08;;;;;;;0.08;0.08;;;32.30;44.70;;;;;;4993092;28;20018;-79
2022/10/17 11:47:37;;;;;;;3.92;0.75;;;32.10;45.00;;;;;;4993546;28;20383;-75
2022/10/17 11:50:10;;;;;;;0.00;0.00;;;31.70;46.00;;;;;;4975978;28;20622;-75
2022/10/17 11:52:42;;;;;;;0.00;0.00;;;31.20;46.40;;;;;;4975871;28;20030;-75
2022/10/17 11:55:18;;;;;;;0.08;0.08;;;31.10;47.80;;;;;;4992918;28;20026;-76
2022/10/17 11:58:15;;;;;;;1.23;0.38;;;30.90;47.40;;;;;;4975820;28;20026;-76
2022/10/17 12:00:52;;;;;;;0.00;0.00;;;31.20;47.50;;;;;;4993274;28;20037;-74
2022/10/17 12:03:30;;;;;;;0.00;0.00;;;31.10;46.20;;;;;;4975554;28;20030;-75
2022/10/17 12:06:16;;;;;;;0.22;0.17;;;30.80;47.20;;;;;;4993006;28;20105;-77
2022/10/17 12:08:54;;;;;;;0.00;0.00;;;31.10;45.80;;;;;;4993146;28;20058;-75
2022/10/17 12:11:49;;;;;;;0.20;0.20;;;31.60;46.20;;;;;;4975382;28;20026;-77
2022/10/17 12:14:40;;;;;;;0.10;0.05;;;31.60;45.20;;;;;;4975312;28;20037;-74
2022/10/17 12:17:21;;;;;;;0.10;0.10;;;31.00;46.90;;;;;;4949780;28;20030;-76
2022/10/17 12:19:47;;;;;;;0.00;0.00;;;30.60;46.20;;;;;;4975276;28;20080;-75
2022/10/17 12:22:17;;;;;;;1.00;0.43;;;30.80;46.80;;;;;;4975425;28;20121;-75
2022/10/17 12:24:52;;;;;;;0.00;0.00;;;31.30;46.00;;;;;;4975350;28;20438;-75
2022/10/17 12:27:33;;;;;;;0.80;0.80;;;31.80;43.90;;;;;;4992765;28;20061;-78
2022/10/17 12:30:21;;;;;;;0.00;0.00;;;31.70;44.60;;;;;;4975325;28;20101;-75
2022/10/17 12:32:56;;;;;;;0.00;0.00;;;31.70;45.10;;;;;;4975436;28;20144;-75
2022/10/17 12:35:24;;;;;;;0.00;0.00;;;31.90;45.50;;;;;;4974998;28;20375;-75
2022/10/17 12:37:49;;;;;;;0.00;0.00;;;31.70;44.60;;;;;;4992679;28;20463;-75
2022/10/17 12:40:33;;;;;;;0.50;0.50;;;31.60;43.90;;;;;;4992424;28;20030;-75
2022/10/17 12:43:15;;;;;;;0.05;0.05;;;31.40;44.20;;;;;;4975057;28;20029;-75
2022/10/17 12:45:43;;;;;;;;;;;30.90;45.20;;;;;;4993118;28;20019;-77
2022/10/17 12:48:09;;;;;;;0.00;0.00;;;30.80;46.10;;;;;;4992538;28;19906;-74
2022/10/17 12:51:04;;;;;;;0.00;0.00;;;30.90;46.70;;;;;;4974959;28;20033;-77
2022/10/17 12:53:45;;;;;;;0.32;0.32;;;30.90;46.10;;;;;;4992468;28;20105;-77
2022/10/17 12:56:12;;;;;;;0.00;0.00;;;30.80;46.60;;;;;;4972979;28;20019;-80
2022/10/17 12:58:47;;;;;;;0.00;0.00;;;30.40;47.30;;;;;;4971864;28;20027;-78
2022/10/17 13:01:32;;;;;;;0.00;0.00;;;30.40;48.20;;;;;;4939702;28;20031;-77
2022/10/17 13:04:04;;;;;;;0.00;0.00;;;29.90;48.40;;;;;;4955888;28;20031;-77
2022/10/17 13:06:39;;;;;;;0.00;0.00;;;29.40;49.70;;;;;;4955708;28;20399;-77
2022/10/17 13:09:20;;;;;;;0.00;0.00;;;28.70;49.80;;;;;;4972969;28;20054;-78
2022/10/17 13:11:49;;;;;;;0.20;0.20;;;28.40;51.20;;;;;;4973028;28;20391;-77
2022/10/17 13:14:17;;;;;;;0.00;0.00;;;28.20;51.20;;;;;;4972749;28;20027;-77